sensor_id;sensor_type;location;lat;lon;timestamp;pressure;altitude;pressure_sealevel;temperature;humidity
49583;BME280;36329;48.816;44.624;2023-03-26T00:01:35;100730;;;12.9;64.3
49583;BME280;36329;48.816;44.624;2023-03-26T00:04:37;100729;;;13;64
49583;BME280;36329;48.816;44.624;2023-03-26T00:07:39;100726;;;13;64
49583;BME280;36329;48.816;44.624;2023-03-26T00:10:42;100723;;;13;64.1
49583;BME280;36329;48.816;44.624;2023-03-26T00:13:45;100722;;;13;64.1
49583;BME280;36329;48.816;44.624;2023-03-26T00:16:47;100720;;;13.1;63.8
49583;BME280;36329;48.816;44.624;2023-03-26T00:19:49;100716;;;13;64.3
49583;BME280;36329;48.816;44.624;2023-03-26T00:22:51;100714;;;13;63.9
49583;BME280;36329;48.816;44.624;2023-03-26T00:25:54;100710;;;12.9;64.2
49583;BME280;36329;48.816;44.624;2023-03-26T00:28:57;100709;;;12.9;64.5
49583;BME280;36329;48.816;44.624;2023-03-26T00:31:59;100711;;;12.9;64.3
49583;BME280;36329;48.816;44.624;2023-03-26T00:35:01;100710;;;12.9;64.7
49583;BME280;36329;48.816;44.624;2023-03-26T00:38:05;100705;;;12.7;65.3
49583;BME280;36329;48.816;44.624;2023-03-26T00:41:09;100712;;;12.7;65.5
49583;BME280;36329;48.816;44.624;2023-03-26T00:44:11;100705;;;12.7;65.5
49583;BME280;36329;48.816;44.624;2023-03-26T00:47:14;100708;;;12.6;65.5
49583;BME280;36329;48.816;44.624;2023-03-26T00:50:16;100705;;;12.6;65.5
49583;BME280;36329;48.816;44.624;2023-03-26T00:53:18;100700;;;12.6;65.4
49583;BME280;36329;48.816;44.624;2023-03-26T00:56:20;100694;;;12.5;66
49583;BME280;36329;48.816;44.624;2023-03-26T00:59:22;100696;;;12.6;65.7
49583;BME280;36329;48.816;44.624;2023-03-26T01:02:25;100698;;;12.5;65.8
49583;BME280;36329;48.816;44.624;2023-03-26T01:05:41;100698;;;12.6;65.4
49583;BME280;36329;48.816;44.624;2023-03-26T01:08:45;100700;;;12.4;65.9
49583;BME280;36329;48.816;44.624;2023-03-26T01:11:48;100698;;;12.5;65.7
49583;BME280;36329;48.816;44.624;2023-03-26T01:14:53;100699;;;12.5;65.6
49583;BME280;36329;48.816;44.624;2023-03-26T01:17:56;100698;;;12.4;65.5
49583;BME280;36329;48.816;44.624;2023-03-26T01:21:01;100702;;;12.4;65.6
49583;BME280;36329;48.816;44.624;2023-03-26T01:24:04;100702;;;12.3;65.9
49583;BME280;36329;48.816;44.624;2023-03-26T01:27:19;100705;;;12.3;65.9
49583;BME280;36329;48.816;44.624;2023-03-26T01:30:31;100708;;;12.2;66.3
49583;BME280;36329;48.816;44.624;2023-03-26T01:33:41;100703;;;12.1;66.4
49583;BME280;36329;48.816;44.624;2023-03-26T01:36:51;100698;;;12.1;66.6
49583;BME280;36329;48.816;44.624;2023-03-26T01:40:00;100700;;;12.1;66.7
49583;BME280;36329;48.816;44.624;2023-03-26T01:43:10;100695;;;12;66.9
49583;BME280;36329;48.816;44.624;2023-03-26T01:46:14;100697;;;12.1;66.7
49583;BME280;36329;48.816;44.624;2023-03-26T01:49:18;100697;;;11.8;67.4
49583;BME280;36329;48.816;44.624;2023-03-26T01:52:22;100698;;;11.9;67.4
49583;BME280;36329;48.816;44.624;2023-03-26T01:55:29;100689;;;11.9;67
49583;BME280;36329;48.816;44.624;2023-03-26T01:58:44;100693;;;11.8;67.5
49583;BME280;36329;48.816;44.624;2023-03-26T02:01:57;100700;;;11.9;67.3
49583;BME280;36329;48.816;44.624;2023-03-26T02:05:07;100705;;;11.9;66.5
49583;BME280;36329;48.816;44.624;2023-03-26T02:08:16;100702;;;11.7;67.3
49583;BME280;36329;48.816;44.624;2023-03-26T02:11:22;100704;;;11.6;67.5
49583;BME280;36329;48.816;44.624;2023-03-26T02:14:25;100698;;;11.5;67.9
49583;BME280;36329;48.816;44.624;2023-03-26T02:17:45;100703;;;11.3;69.3
49583;BME280;36329;48.816;44.624;2023-03-26T02:20:47;100697;;;11.2;70.1
49583;BME280;36329;48.816;44.624;2023-03-26T02:23:51;100700;;;11.3;69.6
49583;BME280;36329;48.816;44.624;2023-03-26T02:26:53;100692;;;11.3;69.5
49583;BME280;36329;48.816;44.624;2023-03-26T02:29:55;100696;;;11.3;69.2
49583;BME280;36329;48.816;44.624;2023-03-26T02:32:58;100701;;;11.2;69.5
49583;BME280;36329;48.816;44.624;2023-03-26T02:36:00;100699;;;11.1;70
49583;BME280;36329;48.816;44.624;2023-03-26T02:39:02;100697;;;11;70.8
49583;BME280;36329;48.816;44.624;2023-03-26T02:42:04;100702;;;10.8;71.7
49583;BME280;36329;48.816;44.624;2023-03-26T02:45:06;100702;;;10.7;71.9
49583;BME280;36329;48.816;44.624;2023-03-26T02:48:08;100695;;;10.7;72.1
49583;BME280;36329;48.816;44.624;2023-03-26T02:51:10;100695;;;10.7;72
49583;BME280;36329;48.816;44.624;2023-03-26T02:54:12;100689;;;10.7;72.3
49583;BME280;36329;48.816;44.624;2023-03-26T02:57:14;100688;;;10.8;71.7
49583;BME280;36329;48.816;44.624;2023-03-26T03:00:16;100685;;;10.7;71.9
49583;BME280;36329;48.816;44.624;2023-03-26T03:03:19;100686;;;10.9;71.2
49583;BME280;36329;48.816;44.624;2023-03-26T03:06:21;100679;;;11;70.7
49583;BME280;36329;48.816;44.624;2023-03-26T03:09:23;100673;;;11.1;70.6
49583;BME280;36329;48.816;44.624;2023-03-26T03:12:25;100680;;;11.1;70.1
49583;BME280;36329;48.816;44.624;2023-03-26T03:15:27;100674;;;11.3;69.6
49583;BME280;36329;48.816;44.624;2023-03-26T03:18:29;100665;;;11.3;69.3
49583;BME280;36329;48.816;44.624;2023-03-26T03:21:31;100670;;;11.4;69.1
49583;BME280;36329;48.816;44.624;2023-03-26T03:24:34;100668;;;11.4;68.9
49583;BME280;36329;48.816;44.624;2023-03-26T03:27:36;100667;;;11.4;68.9
49583;BME280;36329;48.816;44.624;2023-03-26T03:30:38;100670;;;11.6;68.3
49583;BME280;36329;48.816;44.624;2023-03-26T03:33:40;100668;;;11.8;67.4
49583;BME280;36329;48.816;44.624;2023-03-26T03:36:42;100673;;;11.8;67.2
49583;BME280;36329;48.816;44.624;2023-03-26T03:39:44;100667;;;11.8;66
49583;BME280;36329;48.816;44.624;2023-03-26T03:42:46;100654;;;11.8;66.1
49583;BME280;36329;48.816;44.624;2023-03-26T03:45:48;100651;;;11.7;67
49583;BME280;36329;48.816;44.624;2023-03-26T03:48:51;100651;;;11.5;68.4
49583;BME280;36329;48.816;44.624;2023-03-26T03:51:53;100647;;;11.5;68.9
49583;BME280;36329;48.816;44.624;2023-03-26T03:54:55;100652;;;11.7;68.5
49583;BME280;36329;48.816;44.624;2023-03-26T03:57:57;100652;;;11.8;68.2
49583;BME280;36329;48.816;44.624;2023-03-26T04:01:00;100649;;;11.7;69.2
49583;BME280;36329;48.816;44.624;2023-03-26T04:04:02;100641;;;11.5;70.3
49583;BME280;36329;48.816;44.624;2023-03-26T04:07:04;100646;;;11.6;70.5
49583;BME280;36329;48.816;44.624;2023-03-26T04:10:07;100653;;;11.9;69.7
49583;BME280;36329;48.816;44.624;2023-03-26T04:13:11;100654;;;12.1;68.6
49583;BME280;36329;48.816;44.624;2023-03-26T04:16:13;100654;;;12.3;68
49583;BME280;36329;48.816;44.624;2023-03-26T04:19:16;100645;;;12.5;67.5
49583;BME280;36329;48.816;44.624;2023-03-26T04:22:18;100652;;;12.5;67.9
49583;BME280;36329;48.816;44.624;2023-03-26T04:25:20;100653;;;12.6;67.2
49583;BME280;36329;48.816;44.624;2023-03-26T04:28:26;100647;;;12.8;66.7
49583;BME280;36329;48.816;44.624;2023-03-26T04:31:30;100652;;;12.9;65.7
49583;BME280;36329;48.816;44.624;2023-03-26T04:34:33;100643;;;13.1;65.4
49583;BME280;36329;48.816;44.624;2023-03-26T04:37:37;100642;;;13.3;65.1
49583;BME280;36329;48.816;44.624;2023-03-26T04:40:40;100644;;;13.6;63.7
49583;BME280;36329;48.816;44.624;2023-03-26T04:43:42;100644;;;13.7;63.1
49583;BME280;36329;48.816;44.624;2023-03-26T04:46:43;100649;;;14;62.2
49583;BME280;36329;48.816;44.624;2023-03-26T04:49:46;100644;;;14.1;62
49583;BME280;36329;48.816;44.624;2023-03-26T04:52:48;100641;;;14.2;61.3
49583;BME280;36329;48.816;44.624;2023-03-26T04:55:54;100639;;;14.5;60.6
49583;BME280;36329;48.816;44.624;2023-03-26T04:59:00;100634;;;14.6;60.3
49583;BME280;36329;48.816;44.624;2023-03-26T05:02:03;100636;;;14.7;59.6
49583;BME280;36329;48.816;44.624;2023-03-26T05:05:06;100638;;;14.8;59.6
49583;BME280;36329;48.816;44.624;2023-03-26T05:08:08;100641;;;14.9;57.9
49583;BME280;36329;48.816;44.624;2023-03-26T05:11:10;100636;;;15.3;57
49583;BME280;36329;48.816;44.624;2023-03-26T05:14:12;100643;;;15.4;56
49583;BME280;36329;48.816;44.624;2023-03-26T05:17:15;100642;;;15.2;56.4
49583;BME280;36329;48.816;44.624;2023-03-26T05:20:20;100639;;;15.3;55.9
49583;BME280;36329;48.816;44.624;2023-03-26T05:23:22;100641;;;15.2;56
49583;BME280;36329;48.816;44.624;2023-03-26T05:26:24;100647;;;15.1;56.1
49583;BME280;36329;48.816;44.624;2023-03-26T05:29:26;100641;;;15;56.4
49583;BME280;36329;48.816;44.624;2023-03-26T05:32:29;100632;;;14.9;57.1
49583;BME280;36329;48.816;44.624;2023-03-26T05:35:31;100632;;;15.1;56.5
49583;BME280;36329;48.816;44.624;2023-03-26T05:38:33;100634;;;15.4;55.6
49583;BME280;36329;48.816;44.624;2023-03-26T05:41:35;100643;;;15.5;54.7
49583;BME280;36329;48.816;44.624;2023-03-26T05:44:37;100642;;;15.6;54.3
49583;BME280;36329;48.816;44.624;2023-03-26T05:47:39;100633;;;16;52.9
49583;BME280;36329;48.816;44.624;2023-03-26T05:50:41;100628;;;16.5;51.6
49583;BME280;36329;48.816;44.624;2023-03-26T05:53:43;100621;;;16.8;50.4
49583;BME280;36329;48.816;44.624;2023-03-26T05:56:45;100621;;;16.3;51.3
49583;BME280;36329;48.816;44.624;2023-03-26T05:59:48;100628;;;16.1;51.9
49583;BME280;36329;48.816;44.624;2023-03-26T06:02:50;100626;;;16.1;52.1
49583;BME280;36329;48.816;44.624;2023-03-26T06:05:52;100626;;;15.3;54.4
49583;BME280;36329;48.816;44.624;2023-03-26T06:08:54;100617;;;15.8;53.6
49583;BME280;36329;48.816;44.624;2023-03-26T06:11:56;100619;;;15.9;53.3
49583;BME280;36329;48.816;44.624;2023-03-26T06:14:58;100615;;;16;53.6
49583;BME280;36329;48.816;44.624;2023-03-26T06:18:00;100624;;;16;53.2
49583;BME280;36329;48.816;44.624;2023-03-26T06:21:03;100616;;;16.3;52.2
49583;BME280;36329;48.816;44.624;2023-03-26T06:24:06;100615;;;16;52.8
49583;BME280;36329;48.816;44.624;2023-03-26T06:27:08;100614;;;15.7;54
49583;BME280;36329;48.816;44.624;2023-03-26T06:30:10;100606;;;15.8;54.5
49583;BME280;36329;48.816;44.624;2023-03-26T06:33:12;100598;;;15.9;54
49583;BME280;36329;48.816;44.624;2023-03-26T06:36:14;100591;;;16.2;53.7
49583;BME280;36329;48.816;44.624;2023-03-26T06:39:16;100585;;;16.5;54.2
49583;BME280;36329;48.816;44.624;2023-03-26T06:42:19;100574;;;16.9;51.6
49583;BME280;36329;48.816;44.624;2023-03-26T06:45:21;100575;;;17.1;50.7
49583;BME280;36329;48.816;44.624;2023-03-26T06:48:23;100570;;;17.3;50.3
49583;BME280;36329;48.816;44.624;2023-03-26T06:51:25;100570;;;17.7;49.2
49583;BME280;36329;48.816;44.624;2023-03-26T06:54:27;100567;;;17.7;49.2
49583;BME280;36329;48.816;44.624;2023-03-26T06:57:29;100569;;;18.1;49
49583;BME280;36329;48.816;44.624;2023-03-26T07:00:32;100562;;;18.2;48.5
49583;BME280;36329;48.816;44.624;2023-03-26T07:03:34;100556;;;18.5;48.1
49583;BME280;36329;48.816;44.624;2023-03-26T07:06:35;100558;;;18.5;47
49583;BME280;36329;48.816;44.624;2023-03-26T07:09:37;100549;;;19;46.3
49583;BME280;36329;48.816;44.624;2023-03-26T07:12:39;100548;;;19;45.8
49583;BME280;36329;48.816;44.624;2023-03-26T07:15:42;100542;;;19;46.3
49583;BME280;36329;48.816;44.624;2023-03-26T07:18:45;100541;;;19.3;44.7
49583;BME280;36329;48.816;44.624;2023-03-26T07:21:47;100536;;;19.3;45.2
49583;BME280;36329;48.816;44.624;2023-03-26T07:24:50;100529;;;19.5;44.1
49583;BME280;36329;48.816;44.624;2023-03-26T07:27:58;100522;;;19.1;45
49583;BME280;36329;48.816;44.624;2023-03-26T07:31:06;100517;;;19.1;45.1
49583;BME280;36329;48.816;44.624;2023-03-26T07:34:20;100504;;;19.4;43.9
49583;BME280;36329;48.816;44.624;2023-03-26T07:37:30;100495;;;19.3;43.8
49583;BME280;36329;48.816;44.624;2023-03-26T07:40:40;100492;;;19.6;43.1
49583;BME280;36329;48.816;44.624;2023-03-26T07:43:54;100488;;;19.9;42.8
49583;BME280;36329;48.816;44.624;2023-03-26T07:47:14;100476;;;20.5;41.8
49583;BME280;36329;48.816;44.624;2023-03-26T07:50:28;100477;;;21.5;39.7
49583;BME280;36329;48.816;44.624;2023-03-26T07:53:30;100473;;;21.8;38.5
49583;BME280;36329;48.816;44.624;2023-03-26T07:56:35;100461;;;21.9;38.6
49583;BME280;36329;48.816;44.624;2023-03-26T07:59:44;100464;;;21.9;37.7
49583;BME280;36329;48.816;44.624;2023-03-26T08:03:02;100458;;;21.9;37.8
49583;BME280;36329;48.816;44.624;2023-03-26T08:06:14;100447;;;22.1;37.1
49583;BME280;36329;48.816;44.624;2023-03-26T08:09:27;100446;;;22.7;36.1
49583;BME280;36329;48.816;44.624;2023-03-26T08:12:37;100445;;;22.9;35.3
49583;BME280;36329;48.816;44.624;2023-03-26T08:15:48;100435;;;22.6;35.8
49583;BME280;36329;48.816;44.624;2023-03-26T08:19:01;100432;;;22.5;36.6
49583;BME280;36329;48.816;44.624;2023-03-26T08:22:10;100425;;;21.8;36.3
49583;BME280;36329;48.816;44.624;2023-03-26T08:25:18;100432;;;23;34.9
49583;BME280;36329;48.816;44.624;2023-03-26T08:28:31;100427;;;23.5;34
49583;BME280;36329;48.816;44.624;2023-03-26T08:31:37;100420;;;23.7;32.8
49583;BME280;36329;48.816;44.624;2023-03-26T08:34:41;100415;;;24.1;32.4
49583;BME280;36329;48.816;44.624;2023-03-26T08:37:43;100407;;;24.6;32
49583;BME280;36329;48.816;44.624;2023-03-26T08:41:08;100406;;;25;30.2
49583;BME280;36329;48.816;44.624;2023-03-26T08:47:59;100397;;;24.9;29.8
49583;BME280;36329;48.816;44.624;2023-03-26T08:51:19;100400;;;23.7;30.5
49583;BME280;36329;48.816;44.624;2023-03-26T08:54:53;100398;;;24.6;30.5
49583;BME280;36329;48.816;44.624;2023-03-26T09:01:43;100393;;;24.8;29.7
49583;BME280;36329;48.816;44.624;2023-03-26T09:05:07;100392;;;25.5;28.3
49583;BME280;36329;48.816;44.624;2023-03-26T09:08:32;100378;;;24.3;29.1
49583;BME280;36329;48.816;44.624;2023-03-26T09:11:49;100387;;;23.1;28.6
49583;BME280;36329;48.816;44.624;2023-03-26T09:15:10;100378;;;21.5;30.6
49583;BME280;36329;48.816;44.624;2023-03-26T09:18:33;100372;;;21.5;30.7
49583;BME280;36329;48.816;44.624;2023-03-26T09:22:03;100373;;;20.9;30.8
49583;BME280;36329;48.816;44.624;2023-03-26T09:25:34;100363;;;20.7;31.4
49583;BME280;36329;48.816;44.624;2023-03-26T09:28:53;100366;;;20.4;31.7
49583;BME280;36329;48.816;44.624;2023-03-26T09:32:13;100352;;;20.5;31.9
49583;BME280;36329;48.816;44.624;2023-03-26T09:35:37;100352;;;20.3;31.7
49583;BME280;36329;48.816;44.624;2023-03-26T09:38:50;100349;;;20.4;31.6
49583;BME280;36329;48.816;44.624;2023-03-26T09:42:03;100347;;;20.2;31.7
49583;BME280;36329;48.816;44.624;2023-03-26T09:45:24;100336;;;20.4;31.7
49583;BME280;36329;48.816;44.624;2023-03-26T09:52:15;100328;;;20.1;32.2
49583;BME280;36329;48.816;44.624;2023-03-26T09:55:30;100335;;;20.1;32.2
49583;BME280;36329;48.816;44.624;2023-03-26T09:58:44;100330;;;20.1;32.1
49583;BME280;36329;48.816;44.624;2023-03-26T10:01:55;100329;;;20.1;31.7
49583;BME280;36329;48.816;44.624;2023-03-26T10:05:03;100318;;;20;31.6
49583;BME280;36329;48.816;44.624;2023-03-26T10:08:26;100306;;;20;31.6
49583;BME280;36329;48.816;44.624;2023-03-26T10:11:40;100299;;;20.2;30.9
49583;BME280;36329;48.816;44.624;2023-03-26T10:14:56;100297;;;19.9;31
49583;BME280;36329;48.816;44.624;2023-03-26T10:18:10;100298;;;19.9;30.8
49583;BME280;36329;48.816;44.624;2023-03-26T10:21:20;100297;;;19.8;30.9
49583;BME280;36329;48.816;44.624;2023-03-26T10:24:37;100293;;;19.9;30.8
49583;BME280;36329;48.816;44.624;2023-03-26T10:27:50;100289;;;19.8;30.9
49583;BME280;36329;48.816;44.624;2023-03-26T10:31:06;100285;;;19.8;31
49583;BME280;36329;48.816;44.624;2023-03-26T10:34:30;100286;;;19.6;31.3
49583;BME280;36329;48.816;44.624;2023-03-26T10:37:42;100276;;;19.5;31.4
49583;BME280;36329;48.816;44.624;2023-03-26T10:40:53;100279;;;19.6;31.3
49583;BME280;36329;48.816;44.624;2023-03-26T10:44:13;100274;;;19.6;31.1
49583;BME280;36329;48.816;44.624;2023-03-26T10:47:27;100274;;;19.6;30.7
49583;BME280;36329;48.816;44.624;2023-03-26T10:50:47;100267;;;19.5;30.4
49583;BME280;36329;48.816;44.624;2023-03-26T10:53:54;100261;;;19.7;30.1
49583;BME280;36329;48.816;44.624;2023-03-26T10:57:02;100257;;;19.9;29.8
49583;BME280;36329;48.816;44.624;2023-03-26T11:00:17;100259;;;19.7;29.7
49583;BME280;36329;48.816;44.624;2023-03-26T11:03:36;100251;;;19.8;29.5
49583;BME280;36329;48.816;44.624;2023-03-26T11:06:46;100254;;;19.9;29.5
49583;BME280;36329;48.816;44.624;2023-03-26T11:09:56;100256;;;19.8;30.1
49583;BME280;36329;48.816;44.624;2023-03-26T11:13:10;100255;;;20;29.9
49583;BME280;36329;48.816;44.624;2023-03-26T11:16:22;100244;;;20.1;30
49583;BME280;36329;48.816;44.624;2023-03-26T11:19:31;100247;;;20.2;29.7
49583;BME280;36329;48.816;44.624;2023-03-26T11:22:43;100246;;;20;29.9
49583;BME280;36329;48.816;44.624;2023-03-26T11:25:57;100239;;;20;30.1
49583;BME280;36329;48.816;44.624;2023-03-26T11:29:12;100236;;;20.1;29.8
49583;BME280;36329;48.816;44.624;2023-03-26T11:32:21;100230;;;20.1;30.1
49583;BME280;36329;48.816;44.624;2023-03-26T11:35:26;100224;;;20;30.1
49583;BME280;36329;48.816;44.624;2023-03-26T11:38:33;100218;;;20.2;30
49583;BME280;36329;48.816;44.624;2023-03-26T11:41:38;100212;;;20.4;29.9
49583;BME280;36329;48.816;44.624;2023-03-26T11:44:44;100207;;;20.7;29.1
49583;BME280;36329;48.816;44.624;2023-03-26T11:47:50;100200;;;20.6;28.9
49583;BME280;36329;48.816;44.624;2023-03-26T11:50:57;100201;;;20.5;28.6
49583;BME280;36329;48.816;44.624;2023-03-26T11:54:04;100199;;;20.6;28.8
49583;BME280;36329;48.816;44.624;2023-03-26T11:57:09;100190;;;20.6;28.5
49583;BME280;36329;48.816;44.624;2023-03-26T12:00:17;100180;;;20.6;28.3
49583;BME280;36329;48.816;44.624;2023-03-26T12:03:21;100177;;;20.7;28.2
49583;BME280;36329;48.816;44.624;2023-03-26T12:06:25;100173;;;20.6;28.5
49583;BME280;36329;48.816;44.624;2023-03-26T12:09:27;100162;;;20.4;28.6
49583;BME280;36329;48.816;44.624;2023-03-26T12:12:31;100162;;;20.4;28.5
49583;BME280;36329;48.816;44.624;2023-03-26T12:15:41;100157;;;20.5;28.4
49583;BME280;36329;48.816;44.624;2023-03-26T12:18:45;100157;;;20.5;28.6
49583;BME280;36329;48.816;44.624;2023-03-26T12:21:49;100157;;;20.3;28.5
49583;BME280;36329;48.816;44.624;2023-03-26T12:25:01;100141;;;20.3;28.4
49583;BME280;36329;48.816;44.624;2023-03-26T12:28:15;100142;;;20.2;28.2
49583;BME280;36329;48.816;44.624;2023-03-26T12:31:18;100136;;;20.5;28
49583;BME280;36329;48.816;44.624;2023-03-26T12:34:22;100133;;;20.6;28
49583;BME280;36329;48.816;44.624;2023-03-26T12:37:33;100137;;;20.7;27.8
49583;BME280;36329;48.816;44.624;2023-03-26T12:40:38;100138;;;20.7;27.9
49583;BME280;36329;48.816;44.624;2023-03-26T12:43:42;100133;;;20.9;27.8
49583;BME280;36329;48.816;44.624;2023-03-26T12:46:45;100133;;;20.4;27.6
49583;BME280;36329;48.816;44.624;2023-03-26T12:49:48;100126;;;20.3;28.1
49583;BME280;36329;48.816;44.624;2023-03-26T12:52:59;100122;;;20.1;27.5
49583;BME280;36329;48.816;44.624;2023-03-26T12:56:10;100116;;;20;27.8
49583;BME280;36329;48.816;44.624;2023-03-26T12:59:21;100117;;;20;28
49583;BME280;36329;48.816;44.624;2023-03-26T13:02:40;100120;;;20;27.7
49583;BME280;36329;48.816;44.624;2023-03-26T13:05:53;100113;;;19.8;27.8
49583;BME280;36329;48.816;44.624;2023-03-26T13:09:13;100111;;;19.8;27.8
49583;BME280;36329;48.816;44.624;2023-03-26T13:12:28;100107;;;19.8;27.9
49583;BME280;36329;48.816;44.624;2023-03-26T13:15:36;100102;;;19.9;28.5
49583;BME280;36329;48.816;44.624;2023-03-26T13:18:45;100094;;;19.9;27.7
49583;BME280;36329;48.816;44.624;2023-03-26T13:21:58;100093;;;19.8;28.5
49583;BME280;36329;48.816;44.624;2023-03-26T13:25:13;100088;;;19.9;28.6
49583;BME280;36329;48.816;44.624;2023-03-26T13:28:24;100086;;;20;28.1
49583;BME280;36329;48.816;44.624;2023-03-26T13:31:33;100086;;;20.1;27.9
49583;BME280;36329;48.816;44.624;2023-03-26T13:34:47;100080;;;19.9;28.1
49583;BME280;36329;48.816;44.624;2023-03-26T13:38:00;100073;;;19.8;28.2
49583;BME280;36329;48.816;44.624;2023-03-26T13:41:10;100073;;;19.9;28.4
49583;BME280;36329;48.816;44.624;2023-03-26T13:44:26;100065;;;19.9;28.1
49583;BME280;36329;48.816;44.624;2023-03-26T13:47:35;100063;;;20;28.3
49583;BME280;36329;48.816;44.624;2023-03-26T13:50:41;100060;;;20.2;28.5
49583;BME280;36329;48.816;44.624;2023-03-26T13:53:49;100053;;;20.2;28.5
49583;BME280;36329;48.816;44.624;2023-03-26T13:56:58;100057;;;20;28.4
49583;BME280;36329;48.816;44.624;2023-03-26T14:00:04;100050;;;20.1;28.5
49583;BME280;36329;48.816;44.624;2023-03-26T14:03:15;100048;;;20.1;28.7
49583;BME280;36329;48.816;44.624;2023-03-26T14:06:31;100038;;;20.2;28.9
49583;BME280;36329;48.816;44.624;2023-03-26T14:09:41;100038;;;20.1;29.5
49583;BME280;36329;48.816;44.624;2023-03-26T14:12:50;100037;;;20.1;28.7
49583;BME280;36329;48.816;44.624;2023-03-26T14:15:56;100026;;;20.1;29.1
49583;BME280;36329;48.816;44.624;2023-03-26T14:19:03;100024;;;20.1;28.9
49583;BME280;36329;48.816;44.624;2023-03-26T14:22:19;100026;;;20.1;29.1
49583;BME280;36329;48.816;44.624;2023-03-26T14:25:40;100023;;;20.1;29.4
49583;BME280;36329;48.816;44.624;2023-03-26T14:28:58;100022;;;19.9;29.1
49583;BME280;36329;48.816;44.624;2023-03-26T14:32:17;100018;;;19.8;29.5
49583;BME280;36329;48.816;44.624;2023-03-26T14:35:34;100020;;;19.8;30.2
49583;BME280;36329;48.816;44.624;2023-03-26T14:38:56;100006;;;19.7;30.1
49583;BME280;36329;48.816;44.624;2023-03-26T14:42:06;100004;;;19.6;30.4
49583;BME280;36329;48.816;44.624;2023-03-26T14:48:53;99996;;;19.4;31.5
49583;BME280;36329;48.816;44.624;2023-03-26T14:52:02;99990;;;19.4;31.6
49583;BME280;36329;48.816;44.624;2023-03-26T14:55:13;99978;;;19.3;32.1
49583;BME280;36329;48.816;44.624;2023-03-26T14:58:30;99971;;;19.4;32.3
49583;BME280;36329;48.816;44.624;2023-03-26T15:01:52;99955;;;19.5;32.3
49583;BME280;36329;48.816;44.624;2023-03-26T15:05:29;99953;;;19.3;33
49583;BME280;36329;48.816;44.624;2023-03-26T15:12:08;99941;;;19;33.6
49583;BME280;36329;48.816;44.624;2023-03-26T15:15:33;99927;;;18.9;33.7
49583;BME280;36329;48.816;44.624;2023-03-26T15:22:30;99914;;;18.7;34.4
49583;BME280;36329;48.816;44.624;2023-03-26T15:25:49;99909;;;18.6;34.8
49583;BME280;36329;48.816;44.624;2023-03-26T15:29:02;99901;;;18.7;34.9
49583;BME280;36329;48.816;44.624;2023-03-26T15:32:20;99895;;;18.7;35.5
49583;BME280;36329;48.816;44.624;2023-03-26T15:35:34;99890;;;18.5;35.7
49583;BME280;36329;48.816;44.624;2023-03-26T15:38:53;99885;;;18.5;36
49583;BME280;36329;48.816;44.624;2023-03-26T15:42:05;99879;;;18.3;36.3
49583;BME280;36329;48.816;44.624;2023-03-26T15:45:20;99873;;;18.1;37
49583;BME280;36329;48.816;44.624;2023-03-26T15:48:33;99872;;;18.2;37.3
49583;BME280;36329;48.816;44.624;2023-03-26T15:51:44;99867;;;18.1;37.8
49583;BME280;36329;48.816;44.624;2023-03-26T15:54:56;99868;;;17.9;38.4
49583;BME280;36329;48.816;44.624;2023-03-26T15:58:07;99863;;;17.9;38.8
49583;BME280;36329;48.816;44.624;2023-03-26T16:01:20;99860;;;18;38.9
49583;BME280;36329;48.816;44.624;2023-03-26T16:04:35;99859;;;17.9;39.6
49583;BME280;36329;48.816;44.624;2023-03-26T16:07:47;99865;;;17.9;40.4
49583;BME280;36329;48.816;44.624;2023-03-26T16:10:53;99863;;;17.7;40.9
49583;BME280;36329;48.816;44.624;2023-03-26T16:14:09;99861;;;17.7;41.6
49583;BME280;36329;48.816;44.624;2023-03-26T16:17:15;99862;;;17.7;41.8
49583;BME280;36329;48.816;44.624;2023-03-26T16:20:21;99862;;;17.5;42.3
49583;BME280;36329;48.816;44.624;2023-03-26T16:23:28;99857;;;17.3;43.2
49583;BME280;36329;48.816;44.624;2023-03-26T16:26:39;99860;;;17.4;43.4
49583;BME280;36329;48.816;44.624;2023-03-26T16:33:31;99855;;;17.6;42.8
49583;BME280;36329;48.816;44.624;2023-03-26T16:36:41;99855;;;17.7;42.8
49583;BME280;36329;48.816;44.624;2023-03-26T16:39:44;99858;;;17.8;42.1
49583;BME280;36329;48.816;44.624;2023-03-26T16:42:48;99862;;;17.6;42.3
49583;BME280;36329;48.816;44.624;2023-03-26T16:46:02;99855;;;17.5;42.1
49583;BME280;36329;48.816;44.624;2023-03-26T16:49:14;99854;;;17.5;42.8
49583;BME280;36329;48.816;44.624;2023-03-26T16:52:22;99851;;;17.4;43.6
49583;BME280;36329;48.816;44.624;2023-03-26T16:55:34;99850;;;17.1;42.4
49583;BME280;36329;48.816;44.624;2023-03-26T16:58:48;99850;;;16.9;42.6
49583;BME280;36329;48.816;44.624;2023-03-26T17:02:01;99850;;;17;42.5
49583;BME280;36329;48.816;44.624;2023-03-26T17:05:14;99858;;;16.7;43.4
49583;BME280;36329;48.816;44.624;2023-03-26T17:08:23;99854;;;16.4;44.3
49583;BME280;36329;48.816;44.624;2023-03-26T17:11:36;99855;;;16.4;44.3
49583;BME280;36329;48.816;44.624;2023-03-26T17:14:50;99853;;;16.5;44
49583;BME280;36329;48.816;44.624;2023-03-26T17:18:15;99858;;;16.3;44.5
49583;BME280;36329;48.816;44.624;2023-03-26T17:21:25;99865;;;16;45.2
49583;BME280;36329;48.816;44.624;2023-03-26T17:24:38;99863;;;15.8;46.4
49583;BME280;36329;48.816;44.624;2023-03-26T17:27:46;99865;;;15.4;48.4
49583;BME280;36329;48.816;44.624;2023-03-26T17:30:59;99865;;;15.3;49.2
49583;BME280;36329;48.816;44.624;2023-03-26T17:37:41;99856;;;15;51.4
49583;BME280;36329;48.816;44.624;2023-03-26T17:40:49;99864;;;14.8;52.9
49583;BME280;36329;48.816;44.624;2023-03-26T17:43:55;99856;;;14.8;53.9
49583;BME280;36329;48.816;44.624;2023-03-26T17:46:58;99859;;;15;54.2
49583;BME280;36329;48.816;44.624;2023-03-26T17:50:05;99846;;;14.9;55.2
49583;BME280;36329;48.816;44.624;2023-03-26T17:53:16;99854;;;14.7;56.5
49583;BME280;36329;48.816;44.624;2023-03-26T17:56:24;99837;;;14.7;57.1